Delta Billie — WDE8059 — position and weather

sailwx.info

Track history (hours):
 
Tides and Currents Weather Stations Pressure Air Temp Water Temp Dewpoint Dewpoint Depression Visibility Wind Speed Wind Dir Waves Ship Positions

Delta Billie

Owner: Baydelta Maritime, San Francicso, CA. More information available from US FCC via Universal Licensing System and Coast Guard Vessel Documentation Center.

Last reported at 2015-Aug-03 02:26 UTC. Time now 2015-Aug-04 09:40 UTC.
Position N 38°02' W 122°09'.

Length 30 m; draft 5.5 m.

Type: Towing. MMSI: 367401030.

Date/timePositionNaut miles runAvg speedWind from/ knotsBaromVisibWave heightAir tempDewpointWater temp
2015-Aug-03 02:26N 38°02' W 122°09'0 0.2
2015-Aug-03 01:16N 38°02' W 122°09'1 0.2
2015-Aug-02 21:23N 38°02' W 122°08'5 5.0
2015-Aug-02 20:21N 38°04' W 122°14'7 0.6
2015-Aug-02 09:29N 38°03' W 122°06'1 0.7
2015-Aug-02 07:28N 38°02' W 122°07'1 0.7
2015-Aug-02 06:33N 38°03' W 122°08'0 0.0
2015-Aug-02 03:20N 38°03' W 122°08'0 0.4
2015-Aug-02 02:24N 38°02' W 122°08'0 0.0
2015-Aug-02 00:06N 38°02' W 122°08'0 0.0
2015-Aug-01 20:30N 38°02' W 122°08'1110.6
2015-Aug-01 19:26N 38°01' W 122°23'910.6
2015-Aug-01 18:33N 37°52' W 122°24'6 6.0
2015-Aug-01 17:33N 37°48' W 122°19'0 0.1
2015-Aug-01 16:34N 37°48' W 122°19'0 0.1
2015-Aug-01 15:33N 37°48' W 122°19'1 1.4
2015-Aug-01 14:33N 37°48' W 122°17'4 3.7
2015-Aug-01 13:33N 37°48' W 122°22'2 2.4
2015-Aug-01 12:33N 37°48' W 122°19'0 0.0
2015-Aug-01 11:33N 37°48' W 122°19'0 0.4
2015-Aug-01 10:34N 37°48' W 122°19'0 0.0
2015-Aug-01 09:33N 37°48' W 122°19'0 0.0
2015-Aug-01 08:33N 37°48' W 122°19'0 0.0
2015-Aug-01 07:33N 37°48' W 122°19'0 0.0
2015-Aug-01 06:33N 37°48' W 122°19'0 0.0
2015-Aug-01 05:33N 37°48' W 122°19'6 5.9
2015-Aug-01 04:33N 37°52' W 122°24'3 3.3
2015-Aug-01 03:34N 37°55' W 122°22'1 1.0
2015-Aug-01 02:33N 37°54' W 122°22'7 6.5
2015-Aug-01 01:33N 38°01' W 122°24'1111.1
2015-Aug-01 00:31N 38°02' W 122°10'0 0.0
2015-Jul-31 18:33N 38°02' W 122°09'1 0.2
2015-Jul-31 13:13N 38°02' W 122°08'0 0.1
2015-Jul-31 12:33N 38°02' W 122°08'5 1.5
2015-Jul-31 09:18N 38°04' W 122°14'810.1
2015-Jul-31 08:31N 38°01' W 122°23'6 6.0
2015-Jul-31 07:33N 37°55' W 122°25'3 2.5
2015-Jul-31 06:33N 37°55' W 122°22'5 4.5
2015-Jul-31 05:33N 37°59' W 122°26'9 8.9
2015-Jul-31 04:32N 38°04' W 122°16'6 5.4
2015-Jul-31 03:23N 38°02' W 122°08'0 0.0
2015-Jul-31 02:32N 38°02' W 122°08'0 0.0
2015-Jul-31 01:31N 38°02' W 122°08'4 0.4
2015-Jul-30 15:20N 38°04' W 122°14'8 9.8
2015-Jul-30 14:31N 38°01' W 122°23'8 8.8
2015-Jul-30 13:33N 37°53' W 122°24'7 7.0
2015-Jul-30 12:33N 37°48' W 122°18'1 0.7
2015-Jul-30 11:33N 37°48' W 122°19'0 0.2
2015-Jul-30 10:33N 37°48' W 122°19'4 3.6
2015-Jul-30 09:33N 37°48' W 122°24'0 0.0
2015-Jul-30 08:33N 37°48' W 122°24'0 0.0
2015-Jul-30 07:33N 37°48' W 122°24'0 0.0
2015-Jul-30 06:33N 37°48' W 122°24'0 0.0
2015-Jul-30 05:34N 37°48' W 122°24'0 0.0
2015-Jul-30 04:33N 37°48' W 122°24'0 0.0
2015-Jul-30 03:34N 37°48' W 122°24'0 0.0
2015-Jul-30 02:33N 37°48' W 122°24'0 0.0
2015-Jul-30 01:33N 37°48' W 122°24'0 0.0
2015-Jul-30 00:33N 37°48' W 122°24'2 1.7
2015-Jul-29 23:33N 37°49' W 122°26'3 2.7
2015-Jul-29 22:33N 37°49' W 122°29'6 6.0
2015-Jul-29 21:33N 37°54' W 122°26'1 1.4
2015-Jul-29 20:33N 37°55' W 122°25'1 1.2
2015-Jul-29 19:33N 37°54' W 122°25'6 6.2
2015-Jul-29 18:33N 37°48' W 122°24'0 0.0
2015-Jul-29 17:33N 37°48' W 122°24'0 0.0
2015-Jul-29 16:34N 37°48' W 122°24'0 0.0
2015-Jul-29 15:33N 37°48' W 122°24'4 3.9
2015-Jul-29 14:33N 37°49' W 122°19'3 3.0
2015-Jul-29 13:33N 37°47' W 122°22'3 2.7
2015-Jul-29 12:33N 37°49' W 122°19'6 6.3
2015-Jul-29 11:33N 37°53' W 122°25'2 2.2
2015-Jul-29 10:33N 37°56' W 122°25'0 0.0
2015-Jul-29 09:33N 37°56' W 122°25'9 9.0
2015-Jul-29 08:33N 38°03' W 122°18'2 0.5
2015-Jul-29 04:33N 38°04' W 122°16'1211.8
2015-Jul-29 03:34N 37°55' W 122°25'8 7.8
2015-Jul-29 02:33N 37°48' W 122°21'3 2.5
2015-Jul-29 01:33N 37°48' W 122°18'0 0.3
2015-Jul-29 00:33N 37°48' W 122°18'5 4.5
2015-Jul-28 23:33N 37°48' W 122°24'0 0.3
2015-Jul-28 22:33N 37°48' W 122°24'0 0.0
2015-Jul-28 21:33N 37°48' W 122°24'0 0.0
2015-Jul-28 20:33N 37°48' W 122°24'2 2.1
2015-Jul-28 19:33N 37°50' W 122°24'9 8.6
2015-Jul-28 18:33N 37°59' W 122°26'7 6.9
2015-Jul-28 17:33N 38°03' W 122°19'7 6.7
2015-Jul-28 16:32N 38°02' W 122°10'2 1.2
2015-Jul-28 15:11N 38°03' W 122°08'0 0.0
2015-Jul-28 14:34N 38°03' W 122°08'0 0.0
2015-Jul-28 13:33N 38°03' W 122°08'0 0.0
2015-Jul-28 12:27N 38°03' W 122°08'0 0.0
2015-Jul-28 11:26N 38°03' W 122°08'0 0.0
2015-Jul-28 10:28N 38°03' W 122°08'0 0.0
2015-Jul-28 08:30N 38°03' W 122°08'1 0.6
2015-Jul-28 07:33N 38°02' W 122°08'10 8.7
2015-Jul-28 06:26N 38°03' W 122°20'8 9.5
2015-Jul-28 05:33N 37°56' W 122°26'8 7.7
2015-Jul-28 04:33N 37°48' W 122°24'0 0.0
2015-Jul-28 03:33N 37°48' W 122°24'0 0.0
2015-Jul-28 02:33N 37°48' W 122°24'0 0.0
2015-Jul-28 01:33N 37°48' W 122°24'0 0.0
2015-Jul-28 00:33N 37°48' W 122°24'0 0.0
2015-Jul-27 23:33N 37°48' W 122°24'0 0.0
2015-Jul-27 22:33N 37°48' W 122°24'4 3.8
2015-Jul-27 21:33N 37°48' W 122°19'3 3.1
2015-Jul-27 20:33N 37°45' W 122°22'0 0.3
2015-Jul-27 19:33N 37°45' W 122°21'4 3.6
2015-Jul-27 18:33N 37°48' W 122°24'0 0.0
2015-Jul-27 17:33N 37°48' W 122°24'0 0.0
2015-Jul-27 16:33N 37°48' W 122°24'0 0.0
2015-Jul-27 15:33N 37°48' W 122°24'4 3.6
2015-Jul-27 14:33N 37°49' W 122°20'1 0.6
2015-Jul-27 13:33N 37°49' W 122°20'3 2.9
2015-Jul-27 12:33N 37°48' W 122°24'0 0.0
2015-Jul-27 11:33N 37°48' W 122°24'0 0.0
2015-Jul-27 10:33N 37°48' W 122°24'0 0.0
2015-Jul-27 09:33N 37°48' W 122°24'0 0.0
2015-Jul-27 08:33N 37°48' W 122°24'0 0.0
2015-Jul-27 07:33N 37°48' W 122°24'0 0.0
2015-Jul-27 06:33N 37°48' W 122°24'0 0.0
2015-Jul-27 05:33N 37°48' W 122°24'0 0.0
2015-Jul-27 04:33N 37°48' W 122°24'0 0.0
2015-Jul-27 03:33N 37°48' W 122°24'8 7.7
2015-Jul-27 02:33N 37°56' W 122°26'9 8.2
2015-Jul-27 01:28N 38°03' W 122°19'5 4.5
2015-Jul-27 00:24N 38°03' W 122°13'1 0.7
2015-Jul-26 22:27N 38°03' W 122°15'8 9.0
2015-Jul-26 21:33N 38°00' W 122°24'9 9.0
2015-Jul-26 20:33N 37°51' W 122°24'10 9.9
2015-Jul-26 19:33N 38°01' W 122°23'12 1.0
2015-Jul-26 07:22N 38°02' W 122°08'9 3.2
2015-Jul-26 04:32N 38°03' W 121°57'5 2.5
2015-Jul-26 02:28N 38°02' W 121°50'17 1.4
2015-Jul-25 14:27N 38°04' W 122°12'8 8.4
2015-Jul-25 13:33N 38°02' W 122°22'9 9.1
2015-Jul-25 12:33N 37°54' W 122°26'2 2.0
2015-Jul-25 11:33N 37°56' W 122°25'0 0.2
2015-Jul-25 10:33N 37°56' W 122°25'1 0.9
2015-Jul-25 09:34N 37°55' W 122°25'1 0.8
2015-Jul-25 08:33N 37°54' W 122°25'6 6.0
2015-Jul-25 07:33N 37°48' W 122°24'0 0.0
2015-Jul-25 06:33N 37°48' W 122°24'0 0.0
2015-Jul-25 05:33N 37°48' W 122°24'0 0.0
2015-Jul-25 04:33N 37°48' W 122°24'0 0.0
2015-Jul-25 03:33N 37°48' W 122°24'0 0.0
2015-Jul-25 02:33N 37°48' W 122°24'0 0.0
2015-Jul-25 01:33N 37°48' W 122°24'4 4.0
2015-Jul-25 00:33N 37°52' W 122°25'4 3.7
2015-Jul-24 23:34N 37°55' W 122°22'1 0.9
2015-Jul-24 22:33N 37°54' W 122°22'3 3.0
2015-Jul-24 21:33N 37°56' W 122°25'0 0.2
2015-Jul-24 20:18N 37°56' W 122°25'0 0.0
2015-Jul-24 19:33N 37°56' W 122°25'0 0.0
2015-Jul-24 18:33N 37°56' W 122°25'0 0.0
2015-Jul-24 17:33N 37°56' W 122°25'6 6.2
2015-Jul-24 16:33N 37°50' W 122°22'2 1.7
2015-Jul-24 15:33N 37°49' W 122°20'2 2.3
2015-Jul-24 14:33N 37°47' W 122°23'1 1.2
2015-Jul-24 13:33N 37°48' W 122°24'3 2.9
2015-Jul-24 12:33N 37°49' W 122°27'1 1.4
2015-Jul-24 11:33N 37°50' W 122°27'8 8.1
2015-Jul-24 10:33N 37°58' W 122°26'10 9.3
2015-Jul-24 09:28N 38°04' W 122°15'  
Track history (hours):
 
Tides and Currents Weather Stations Pressure Air Temp Water Temp Dewpoint Dewpoint Depression Visibility Wind Speed Wind Dir Waves Ship Positions

Delta Billie

Owner: Baydelta Maritime, San Francicso, CA. More information available from US FCC via Universal Licensing System and Coast Guard Vessel Documentation Center.

Last reported at 2015-Aug-03 02:26 UTC. Time now 2015-Aug-04 09:40 UTC.
Position N 38°02' W 122°09'.

Length 30 m; draft 5.5 m.

Type: Towing. MMSI: 367401030.

Date/timePositionNaut miles runAvg speedWind from/ knotsBaromVisibWave heightAir tempDewpointWater temp
2015-Aug-03 02:26N 38°02' W 122°09'0 0.2
2015-Aug-03 01:16N 38°02' W 122°09'1 0.2
2015-Aug-02 21:23N 38°02' W 122°08'5 5.0
2015-Aug-02 20:21N 38°04' W 122°14'7 0.6
2015-Aug-02 09:29N 38°03' W 122°06'1 0.7
2015-Aug-02 07:28N 38°02' W 122°07'1 0.7
2015-Aug-02 06:33N 38°03' W 122°08'0 0.0
2015-Aug-02 03:20N 38°03' W 122°08'0 0.4
2015-Aug-02 02:24N 38°02' W 122°08'0 0.0
2015-Aug-02 00:06N 38°02' W 122°08'0 0.0
2015-Aug-01 20:30N 38°02' W 122°08'1110.6
2015-Aug-01 19:26N 38°01' W 122°23'910.6
2015-Aug-01 18:33N 37°52' W 122°24'6 6.0
2015-Aug-01 17:33N 37°48' W 122°19'0 0.1
2015-Aug-01 16:34N 37°48' W 122°19'0 0.1
2015-Aug-01 15:33N 37°48' W 122°19'1 1.4
2015-Aug-01 14:33N 37°48' W 122°17'4 3.7
2015-Aug-01 13:33N 37°48' W 122°22'2 2.4
2015-Aug-01 12:33N 37°48' W 122°19'0 0.0
2015-Aug-01 11:33N 37°48' W 122°19'0 0.4
2015-Aug-01 10:34N 37°48' W 122°19'0 0.0
2015-Aug-01 09:33N 37°48' W 122°19'0 0.0
2015-Aug-01 08:33N 37°48' W 122°19'0 0.0
2015-Aug-01 07:33N 37°48' W 122°19'0 0.0
2015-Aug-01 06:33N 37°48' W 122°19'0 0.0
2015-Aug-01 05:33N 37°48' W 122°19'6 5.9
2015-Aug-01 04:33N 37°52' W 122°24'3 3.3
2015-Aug-01 03:34N 37°55' W 122°22'1 1.0
2015-Aug-01 02:33N 37°54' W 122°22'7 6.5
2015-Aug-01 01:33N 38°01' W 122°24'1111.1
2015-Aug-01 00:31N 38°02' W 122°10'0 0.0
2015-Jul-31 18:33N 38°02' W 122°09'1 0.2
2015-Jul-31 13:13N 38°02' W 122°08'0 0.1
2015-Jul-31 12:33N 38°02' W 122°08'5 1.5
2015-Jul-31 09:18N 38°04' W 122°14'810.1
2015-Jul-31 08:31N 38°01' W 122°23'6 6.0
2015-Jul-31 07:33N 37°55' W 122°25'3 2.5
2015-Jul-31 06:33N 37°55' W 122°22'5 4.5
2015-Jul-31 05:33N 37°59' W 122°26'9 8.9
2015-Jul-31 04:32N 38°04' W 122°16'6 5.4
2015-Jul-31 03:23N 38°02' W 122°08'0 0.0
2015-Jul-31 02:32N 38°02' W 122°08'0 0.0
2015-Jul-31 01:31N 38°02' W 122°08'4 0.4
2015-Jul-30 15:20N 38°04' W 122°14'8 9.8
2015-Jul-30 14:31N 38°01' W 122°23'8 8.8
2015-Jul-30 13:33N 37°53' W 122°24'7 7.0
2015-Jul-30 12:33N 37°48' W 122°18'1 0.7
2015-Jul-30 11:33N 37°48' W 122°19'0 0.2
2015-Jul-30 10:33N 37°48' W 122°19'4 3.6
2015-Jul-30 09:33N 37°48' W 122°24'0 0.0
2015-Jul-30 08:33N 37°48' W 122°24'0 0.0
2015-Jul-30 07:33N 37°48' W 122°24'0 0.0
2015-Jul-30 06:33N 37°48' W 122°24'0 0.0
2015-Jul-30 05:34N 37°48' W 122°24'0 0.0
2015-Jul-30 04:33N 37°48' W 122°24'0 0.0
2015-Jul-30 03:34N 37°48' W 122°24'0 0.0
2015-Jul-30 02:33N 37°48' W 122°24'0 0.0
2015-Jul-30 01:33N 37°48' W 122°24'0 0.0
2015-Jul-30 00:33N 37°48' W 122°24'2 1.7
2015-Jul-29 23:33N 37°49' W 122°26'3 2.7
2015-Jul-29 22:33N 37°49' W 122°29'6 6.0
2015-Jul-29 21:33N 37°54' W 122°26'1 1.4
2015-Jul-29 20:33N 37°55' W 122°25'1 1.2
2015-Jul-29 19:33N 37°54' W 122°25'6 6.2
2015-Jul-29 18:33N 37°48' W 122°24'0 0.0
2015-Jul-29 17:33N 37°48' W 122°24'0 0.0
2015-Jul-29 16:34N 37°48' W 122°24'0 0.0
2015-Jul-29 15:33N 37°48' W 122°24'4 3.9
2015-Jul-29 14:33N 37°49' W 122°19'3 3.0
2015-Jul-29 13:33N 37°47' W 122°22'3 2.7
2015-Jul-29 12:33N 37°49' W 122°19'6 6.3
2015-Jul-29 11:33N 37°53' W 122°25'2 2.2
2015-Jul-29 10:33N 37°56' W 122°25'0 0.0
2015-Jul-29 09:33N 37°56' W 122°25'9 9.0
2015-Jul-29 08:33N 38°03' W 122°18'2 0.5
2015-Jul-29 04:33N 38°04' W 122°16'1211.8
2015-Jul-29 03:34N 37°55' W 122°25'8 7.8
2015-Jul-29 02:33N 37°48' W 122°21'3 2.5
2015-Jul-29 01:33N 37°48' W 122°18'0 0.3
2015-Jul-29 00:33N 37°48' W 122°18'5 4.5
2015-Jul-28 23:33N 37°48' W 122°24'0 0.3
2015-Jul-28 22:33N 37°48' W 122°24'0 0.0
2015-Jul-28 21:33N 37°48' W 122°24'0 0.0
2015-Jul-28 20:33N 37°48' W 122°24'2 2.1
2015-Jul-28 19:33N 37°50' W 122°24'9 8.6
2015-Jul-28 18:33N 37°59' W 122°26'7 6.9
2015-Jul-28 17:33N 38°03' W 122°19'7 6.7
2015-Jul-28 16:32N 38°02' W 122°10'2 1.2
2015-Jul-28 15:11N 38°03' W 122°08'0 0.0
2015-Jul-28 14:34N 38°03' W 122°08'0 0.0
2015-Jul-28 13:33N 38°03' W 122°08'0 0.0
2015-Jul-28 12:27N 38°03' W 122°08'0 0.0
2015-Jul-28 11:26N 38°03' W 122°08'0 0.0
2015-Jul-28 10:28N 38°03' W 122°08'0 0.0
2015-Jul-28 08:30N 38°03' W 122°08'1 0.6
2015-Jul-28 07:33N 38°02' W 122°08'10 8.7
2015-Jul-28 06:26N 38°03' W 122°20'8 9.5
2015-Jul-28 05:33N 37°56' W 122°26'8 7.7
2015-Jul-28 04:33N 37°48' W 122°24'0 0.0
2015-Jul-28 03:33N 37°48' W 122°24'0 0.0
2015-Jul-28 02:33N 37°48' W 122°24'0 0.0
2015-Jul-28 01:33N 37°48' W 122°24'0 0.0
2015-Jul-28 00:33N 37°48' W 122°24'0 0.0
2015-Jul-27 23:33N 37°48' W 122°24'0 0.0
2015-Jul-27 22:33N 37°48' W 122°24'4 3.8
2015-Jul-27 21:33N 37°48' W 122°19'3 3.1
2015-Jul-27 20:33N 37°45' W 122°22'0 0.3
2015-Jul-27 19:33N 37°45' W 122°21'4 3.6
2015-Jul-27 18:33N 37°48' W 122°24'0 0.0
2015-Jul-27 17:33N 37°48' W 122°24'0 0.0
2015-Jul-27 16:33N 37°48' W 122°24'0 0.0
2015-Jul-27 15:33N 37°48' W 122°24'4 3.6
2015-Jul-27 14:33N 37°49' W 122°20'1 0.6
2015-Jul-27 13:33N 37°49' W 122°20'3 2.9
2015-Jul-27 12:33N 37°48' W 122°24'0 0.0
2015-Jul-27 11:33N 37°48' W 122°24'0 0.0
2015-Jul-27 10:33N 37°48' W 122°24'0 0.0
2015-Jul-27 09:33N 37°48' W 122°24'0 0.0
2015-Jul-27 08:33N 37°48' W 122°24'0 0.0
2015-Jul-27 07:33N 37°48' W 122°24'0 0.0
2015-Jul-27 06:33N 37°48' W 122°24'0 0.0
2015-Jul-27 05:33N 37°48' W 122°24'0 0.0
2015-Jul-27 04:33N 37°48' W 122°24'0 0.0
2015-Jul-27 03:33N 37°48' W 122°24'8 7.7
2015-Jul-27 02:33N 37°56' W 122°26'9 8.2
2015-Jul-27 01:28N 38°03' W 122°19'5 4.5
2015-Jul-27 00:24N 38°03' W 122°13'1 0.7
2015-Jul-26 22:27N 38°03' W 122°15'8 9.0
2015-Jul-26 21:33N 38°00' W 122°24'9 9.0
2015-Jul-26 20:33N 37°51' W 122°24'10 9.9
2015-Jul-26 19:33N 38°01' W 122°23'12 1.0
2015-Jul-26 07:22N 38°02' W 122°08'9 3.2
2015-Jul-26 04:32N 38°03' W 121°57'5 2.5
2015-Jul-26 02:28N 38°02' W 121°50'17 1.4
2015-Jul-25 14:27N 38°04' W 122°12'8 8.4
2015-Jul-25 13:33N 38°02' W 122°22'9 9.1
2015-Jul-25 12:33N 37°54' W 122°26'2 2.0
2015-Jul-25 11:33N 37°56' W 122°25'0 0.2
2015-Jul-25 10:33N 37°56' W 122°25'1 0.9
2015-Jul-25 09:34N 37°55' W 122°25'1 0.8
2015-Jul-25 08:33N 37°54' W 122°25'6 6.0
2015-Jul-25 07:33N 37°48' W 122°24'0 0.0
2015-Jul-25 06:33N 37°48' W 122°24'0 0.0
2015-Jul-25 05:33N 37°48' W 122°24'0 0.0
2015-Jul-25 04:33N 37°48' W 122°24'0 0.0
2015-Jul-25 03:33N 37°48' W 122°24'0 0.0
2015-Jul-25 02:33N 37°48' W 122°24'0 0.0
2015-Jul-25 01:33N 37°48' W 122°24'4 4.0
2015-Jul-25 00:33N 37°52' W 122°25'4 3.7
2015-Jul-24 23:34N 37°55' W 122°22'1 0.9
2015-Jul-24 22:33N 37°54' W 122°22'3 3.0
2015-Jul-24 21:33N 37°56' W 122°25'0 0.2
2015-Jul-24 20:18N 37°56' W 122°25'0 0.0
2015-Jul-24 19:33N 37°56' W 122°25'0 0.0
2015-Jul-24 18:33N 37°56' W 122°25'0 0.0
2015-Jul-24 17:33N 37°56' W 122°25'6 6.2
2015-Jul-24 16:33N 37°50' W 122°22'2 1.7
2015-Jul-24 15:33N 37°49' W 122°20'2 2.3
2015-Jul-24 14:33N 37°47' W 122°23'1 1.2
2015-Jul-24 13:33N 37°48' W 122°24'3 2.9
2015-Jul-24 12:33N 37°49' W 122°27'1 1.4
2015-Jul-24 11:33N 37°50' W 122°27'8 8.1
2015-Jul-24 10:33N 37°58' W 122°26'10 9.3
2015-Jul-24 09:28N 38°04' W 122°15'  

Dump ship's entire track history